Henry, Nebraska
Current Conditions -  °F | °C
As of 3:53 PM on Wednesday 22 Oct 2014 (Local Time) from KTOR Reporting Station
Clear Clear  
Wind Chill: 67°   Ceiling: Unl
Heat Index: 67°   Visibility: 10mi
Dew Point: 16°   Wind: 15mph
Humidity: 14%   Direction: 260°W
Pressure: 30.02"   Gusts: 25mph
Location:  42°N, 104.05°W
Report Text: KTOR 222153Z AUTO 26013G22KT 10SM CLR 19/M09 A3002 RMK AO2 SLP135 T01941089
Loading
Personal Weather Stations






























Interactive Weather Map New forecast layout! Learn more

10-Day Weather Forecast

Advertisements
Track Severe Weather on mobile